sensor_id;sensor_type;location;lat;lon;timestamp;pressure;altitude;pressure_sealevel;temperature
22322;BMP180;11328;53.928;18.522;2023-09-30T00:02:04;100279.00;;;22.00
22322;BMP180;11328;53.928;18.522;2023-09-30T00:04:31;100287.00;;;22.00
22322;BMP180;11328;53.928;18.522;2023-09-30T00:06:58;100296.00;;;22.00
22322;BMP180;11328;53.928;18.522;2023-09-30T00:09:26;100288.00;;;21.90
22322;BMP180;11328;53.928;18.522;2023-09-30T00:11:53;100287.00;;;22.10
22322;BMP180;11328;53.928;18.522;2023-09-30T00:14:22;100288.00;;;22.10
22322;BMP180;11328;53.928;18.522;2023-09-30T00:16:49;100279.00;;;22.10
22322;BMP180;11328;53.928;18.522;2023-09-30T00:19:17;100278.00;;;22.20
22322;BMP180;11328;53.928;18.522;2023-09-30T00:21:44;100277.00;;;22.10
22322;BMP180;11328;53.928;18.522;2023-09-30T00:24:11;100276.00;;;22.00
22322;BMP180;11328;53.928;18.522;2023-09-30T00:26:38;100281.00;;;21.90
22322;BMP180;11328;53.928;18.522;2023-09-30T00:29:06;100274.00;;;21.80
22322;BMP180;11328;53.928;18.522;2023-09-30T00:31:33;100274.00;;;21.70
22322;BMP180;11328;53.928;18.522;2023-09-30T00:34:01;100272.00;;;21.60
22322;BMP180;11328;53.928;18.522;2023-09-30T00:36:28;100270.00;;;21.70
22322;BMP180;11328;53.928;18.522;2023-09-30T00:38:55;100269.00;;;21.70
22322;BMP180;11328;53.928;18.522;2023-09-30T00:41:22;100269.00;;;21.60
22322;BMP180;11328;53.928;18.522;2023-09-30T00:43:49;100275.00;;;21.60
22322;BMP180;11328;53.928;18.522;2023-09-30T00:46:36;100273.00;;;21.70
22322;BMP180;11328;53.928;18.522;2023-09-30T00:49:04;100273.00;;;21.60
22322;BMP180;11328;53.928;18.522;2023-09-30T00:51:32;100265.00;;;21.60
22322;BMP180;11328;53.928;18.522;2023-09-30T00:54:01;100242.00;;;21.60
22322;BMP180;11328;53.928;18.522;2023-09-30T00:56:30;100262.00;;;21.40
22322;BMP180;11328;53.928;18.522;2023-09-30T00:58:57;100268.00;;;21.30
22322;BMP180;11328;53.928;18.522;2023-09-30T01:01:25;100269.00;;;21.20
22322;BMP180;11328;53.928;18.522;2023-09-30T01:03:52;100267.00;;;21.10
22322;BMP180;11328;53.928;18.522;2023-09-30T01:06:20;100262.00;;;21.00
22322;BMP180;11328;53.928;18.522;2023-09-30T01:08:47;100269.00;;;21.00
22322;BMP180;11328;53.928;18.522;2023-09-30T01:11:14;100277.00;;;20.90
22322;BMP180;11328;53.928;18.522;2023-09-30T01:13:42;100266.00;;;20.80
22322;BMP180;11328;53.928;18.522;2023-09-30T01:16:11;100268.00;;;20.80
22322;BMP180;11328;53.928;18.522;2023-09-30T01:18:40;100264.00;;;20.70
22322;BMP180;11328;53.928;18.522;2023-09-30T01:21:10;100268.00;;;20.80
22322;BMP180;11328;53.928;18.522;2023-09-30T01:23:38;100264.00;;;20.80
22322;BMP180;11328;53.928;18.522;2023-09-30T01:26:09;100270.00;;;20.70
22322;BMP180;11328;53.928;18.522;2023-09-30T01:28:36;100276.00;;;20.70
22322;BMP180;11328;53.928;18.522;2023-09-30T01:31:04;100267.00;;;20.60
22322;BMP180;11328;53.928;18.522;2023-09-30T01:33:32;100275.00;;;20.50
22322;BMP180;11328;53.928;18.522;2023-09-30T01:36:00;100260.00;;;20.50
22322;BMP180;11328;53.928;18.522;2023-09-30T01:38:27;100263.00;;;20.50
22322;BMP180;11328;53.928;18.522;2023-09-30T01:40:54;100263.00;;;20.60
22322;BMP180;11328;53.928;18.522;2023-09-30T01:43:24;100264.00;;;20.60
22322;BMP180;11328;53.928;18.522;2023-09-30T01:45:51;100268.00;;;20.60
22322;BMP180;11328;53.928;18.522;2023-09-30T01:48:18;100275.00;;;20.50
22322;BMP180;11328;53.928;18.522;2023-09-30T01:50:46;100259.00;;;20.50
22322;BMP180;11328;53.928;18.522;2023-09-30T01:53:14;100256.00;;;20.70
22322;BMP180;11328;53.928;18.522;2023-09-30T01:55:41;100255.00;;;20.90
22322;BMP180;11328;53.928;18.522;2023-09-30T01:58:09;100252.00;;;21.00
22322;BMP180;11328;53.928;18.522;2023-09-30T02:00:39;100256.00;;;20.80
22322;BMP180;11328;53.928;18.522;2023-09-30T02:03:06;100257.00;;;20.60
22322;BMP180;11328;53.928;18.522;2023-09-30T02:05:34;100261.00;;;20.50
22322;BMP180;11328;53.928;18.522;2023-09-30T02:08:03;100264.00;;;20.40
22322;BMP180;11328;53.928;18.522;2023-09-30T02:10:32;100257.00;;;20.30
22322;BMP180;11328;53.928;18.522;2023-09-30T02:13:03;100265.00;;;20.20
22322;BMP180;11328;53.928;18.522;2023-09-30T02:15:33;100267.00;;;20.20
22322;BMP180;11328;53.928;18.522;2023-09-30T02:18:01;100263.00;;;20.20
22322;BMP180;11328;53.928;18.522;2023-09-30T02:20:28;100260.00;;;20.10
22322;BMP180;11328;53.928;18.522;2023-09-30T02:22:57;100265.00;;;20.10
22322;BMP180;11328;53.928;18.522;2023-09-30T02:25:25;100259.00;;;20.10
22322;BMP180;11328;53.928;18.522;2023-09-30T02:27:52;100248.00;;;20.10
22322;BMP180;11328;53.928;18.522;2023-09-30T02:30:19;100251.00;;;20.10
22322;BMP180;11328;53.928;18.522;2023-09-30T02:32:47;100247.00;;;20.10
22322;BMP180;11328;53.928;18.522;2023-09-30T02:35:14;100246.00;;;20.10
22322;BMP180;11328;53.928;18.522;2023-09-30T02:37:42;100252.00;;;20.10
22322;BMP180;11328;53.928;18.522;2023-09-30T02:40:10;100257.00;;;20.00
22322;BMP180;11328;53.928;18.522;2023-09-30T02:42:39;100259.00;;;19.90
22322;BMP180;11328;53.928;18.522;2023-09-30T02:45:08;100255.00;;;19.90
22322;BMP180;11328;53.928;18.522;2023-09-30T02:47:37;100263.00;;;19.90
22322;BMP180;11328;53.928;18.522;2023-09-30T02:50:09;100265.00;;;19.80
22322;BMP180;11328;53.928;18.522;2023-09-30T02:52:41;100267.00;;;19.80
22322;BMP180;11328;53.928;18.522;2023-09-30T02:55:12;100276.00;;;19.90
22322;BMP180;11328;53.928;18.522;2023-09-30T02:57:39;100282.00;;;19.90
22322;BMP180;11328;53.928;18.522;2023-09-30T03:00:09;100283.00;;;19.90
22322;BMP180;11328;53.928;18.522;2023-09-30T03:02:53;100281.00;;;20.00
22322;BMP180;11328;53.928;18.522;2023-09-30T03:05:21;100283.00;;;20.10
22322;BMP180;11328;53.928;18.522;2023-09-30T03:07:49;100280.00;;;20.10
22322;BMP180;11328;53.928;18.522;2023-09-30T03:10:17;100285.00;;;20.10
22322;BMP180;11328;53.928;18.522;2023-09-30T03:12:54;100292.00;;;20.10
22322;BMP180;11328;53.928;18.522;2023-09-30T03:15:22;100291.00;;;20.10
22322;BMP180;11328;53.928;18.522;2023-09-30T03:17:49;100287.00;;;20.10
22322;BMP180;11328;53.928;18.522;2023-09-30T03:20:19;100273.00;;;20.10
22322;BMP180;11328;53.928;18.522;2023-09-30T03:22:47;100305.00;;;20.10
22322;BMP180;11328;53.928;18.522;2023-09-30T03:25:17;100280.00;;;20.10
22322;BMP180;11328;53.928;18.522;2023-09-30T03:27:45;100288.00;;;20.10
22322;BMP180;11328;53.928;18.522;2023-09-30T03:30:16;100290.00;;;20.10
22322;BMP180;11328;53.928;18.522;2023-09-30T03:32:44;100283.00;;;20.10
22322;BMP180;11328;53.928;18.522;2023-09-30T03:35:11;100283.00;;;20.10
22322;BMP180;11328;53.928;18.522;2023-09-30T03:37:47;100285.00;;;20.10
22322;BMP180;11328;53.928;18.522;2023-09-30T03:40:15;100292.00;;;20.10
22322;BMP180;11328;53.928;18.522;2023-09-30T03:42:47;100278.00;;;20.10
22322;BMP180;11328;53.928;18.522;2023-09-30T03:45:17;100299.00;;;20.10
22322;BMP180;11328;53.928;18.522;2023-09-30T03:47:45;100299.00;;;20.10
22322;BMP180;11328;53.928;18.522;2023-09-30T03:50:15;100299.00;;;20.10
22322;BMP180;11328;53.928;18.522;2023-09-30T03:52:43;100299.00;;;20.00
22322;BMP180;11328;53.928;18.522;2023-09-30T03:55:15;100304.00;;;20.00
22322;BMP180;11328;53.928;18.522;2023-09-30T03:57:48;100307.00;;;20.00
22322;BMP180;11328;53.928;18.522;2023-09-30T04:00:16;100303.00;;;19.90
22322;BMP180;11328;53.928;18.522;2023-09-30T04:02:48;100312.00;;;19.90
22322;BMP180;11328;53.928;18.522;2023-09-30T04:05:18;100322.00;;;19.80
22322;BMP180;11328;53.928;18.522;2023-09-30T04:07:46;100317.00;;;19.70
22322;BMP180;11328;53.928;18.522;2023-09-30T04:10:13;100334.00;;;19.70
22322;BMP180;11328;53.928;18.522;2023-09-30T04:12:41;100324.00;;;19.60
22322;BMP180;11328;53.928;18.522;2023-09-30T04:15:08;100335.00;;;19.60
22322;BMP180;11328;53.928;18.522;2023-09-30T04:17:39;100338.00;;;19.70
22322;BMP180;11328;53.928;18.522;2023-09-30T04:20:08;100340.00;;;19.70
22322;BMP180;11328;53.928;18.522;2023-09-30T04:22:45;100326.00;;;19.70
22322;BMP180;11328;53.928;18.522;2023-09-30T04:25:17;100337.00;;;19.70
22322;BMP180;11328;53.928;18.522;2023-09-30T04:27:46;100336.00;;;19.70
22322;BMP180;11328;53.928;18.522;2023-09-30T04:30:17;100362.00;;;19.70
22322;BMP180;11328;53.928;18.522;2023-09-30T04:32:44;100371.00;;;19.50
22322;BMP180;11328;53.928;18.522;2023-09-30T04:35:11;100381.00;;;19.30
22322;BMP180;11328;53.928;18.522;2023-09-30T04:37:38;100384.00;;;19.20
22322;BMP180;11328;53.928;18.522;2023-09-30T04:40:09;100393.00;;;19.20
22322;BMP180;11328;53.928;18.522;2023-09-30T04:42:43;100390.00;;;19.20
22322;BMP180;11328;53.928;18.522;2023-09-30T04:45:11;100399.00;;;19.00
22322;BMP180;11328;53.928;18.522;2023-09-30T04:47:39;100401.00;;;18.90
22322;BMP180;11328;53.928;18.522;2023-09-30T04:50:08;100407.00;;;18.80
22322;BMP180;11328;53.928;18.522;2023-09-30T04:52:35;100413.00;;;18.70
22322;BMP180;11328;53.928;18.522;2023-09-30T04:55:02;100426.00;;;18.60
22322;BMP180;11328;53.928;18.522;2023-09-30T04:57:32;100398.00;;;18.60
22322;BMP180;11328;53.928;18.522;2023-09-30T04:59:59;100416.00;;;18.40
22322;BMP180;11328;53.928;18.522;2023-09-30T05:02:27;100434.00;;;18.60
22322;BMP180;11328;53.928;18.522;2023-09-30T05:04:54;100444.00;;;18.60
22322;BMP180;11328;53.928;18.522;2023-09-30T05:07:21;100456.00;;;18.40
22322;BMP180;11328;53.928;18.522;2023-09-30T05:09:48;100460.00;;;18.40
22322;BMP180;11328;53.928;18.522;2023-09-30T05:12:16;100456.00;;;18.40
22322;BMP180;11328;53.928;18.522;2023-09-30T05:14:43;100468.00;;;18.50
22322;BMP180;11328;53.928;18.522;2023-09-30T05:17:10;100465.00;;;18.40
22322;BMP180;11328;53.928;18.522;2023-09-30T05:19:38;100469.00;;;18.30
22322;BMP180;11328;53.928;18.522;2023-09-30T05:22:05;100466.00;;;18.30
22322;BMP180;11328;53.928;18.522;2023-09-30T05:24:32;100482.00;;;18.30
22322;BMP180;11328;53.928;18.522;2023-09-30T05:26:59;100489.00;;;18.40
22322;BMP180;11328;53.928;18.522;2023-09-30T05:29:26;100491.00;;;18.30
22322;BMP180;11328;53.928;18.522;2023-09-30T05:31:53;100501.00;;;18.30
22322;BMP180;11328;53.928;18.522;2023-09-30T05:34:20;100502.00;;;18.30
22322;BMP180;11328;53.928;18.522;2023-09-30T05:36:47;100501.00;;;18.20
22322;BMP180;11328;53.928;18.522;2023-09-30T05:39:16;100501.00;;;18.20
22322;BMP180;11328;53.928;18.522;2023-09-30T05:41:47;100507.00;;;18.20
22322;BMP180;11328;53.928;18.522;2023-09-30T05:44:14;100510.00;;;18.20
22322;BMP180;11328;53.928;18.522;2023-09-30T05:46:41;100528.00;;;18.20
22322;BMP180;11328;53.928;18.522;2023-09-30T05:49:10;100519.00;;;18.10
22322;BMP180;11328;53.928;18.522;2023-09-30T05:51:41;100525.00;;;18.10
22322;BMP180;11328;53.928;18.522;2023-09-30T05:54:08;100518.00;;;17.80
22322;BMP180;11328;53.928;18.522;2023-09-30T05:56:37;100522.00;;;17.90
22322;BMP180;11328;53.928;18.522;2023-09-30T05:59:05;100514.00;;;17.90
22322;BMP180;11328;53.928;18.522;2023-09-30T06:01:32;100528.00;;;17.90
22322;BMP180;11328;53.928;18.522;2023-09-30T06:04:00;100537.00;;;17.80
22322;BMP180;11328;53.928;18.522;2023-09-30T06:06:28;100540.00;;;17.90
22322;BMP180;11328;53.928;18.522;2023-09-30T06:08:58;100552.00;;;18.00
22322;BMP180;11328;53.928;18.522;2023-09-30T06:11:25;100560.00;;;18.10
22322;BMP180;11328;53.928;18.522;2023-09-30T06:13:56;100566.00;;;18.10
22322;BMP180;11328;53.928;18.522;2023-09-30T06:16:26;100561.00;;;18.00
22322;BMP180;11328;53.928;18.522;2023-09-30T06:18:54;100566.00;;;17.90
22322;BMP180;11328;53.928;18.522;2023-09-30T06:21:24;100562.00;;;18.00
22322;BMP180;11328;53.928;18.522;2023-09-30T06:23:51;100565.00;;;18.00
22322;BMP180;11328;53.928;18.522;2023-09-30T06:26:18;100572.00;;;18.10
22322;BMP180;11328;53.928;18.522;2023-09-30T06:28:47;100580.00;;;18.20
22322;BMP180;11328;53.928;18.522;2023-09-30T06:31:14;100577.00;;;18.10
22322;BMP180;11328;53.928;18.522;2023-09-30T06:33:42;100587.00;;;18.30
22322;BMP180;11328;53.928;18.522;2023-09-30T06:36:14;100591.00;;;18.30
22322;BMP180;11328;53.928;18.522;2023-09-30T06:38:42;100572.00;;;18.40
22322;BMP180;11328;53.928;18.522;2023-09-30T06:41:16;100597.00;;;18.60
22322;BMP180;11328;53.928;18.522;2023-09-30T06:43:44;100599.00;;;18.60
22322;BMP180;11328;53.928;18.522;2023-09-30T06:46:11;100602.00;;;18.60
22322;BMP180;11328;53.928;18.522;2023-09-30T06:48:39;100608.00;;;18.60
22322;BMP180;11328;53.928;18.522;2023-09-30T06:51:07;100604.00;;;18.80
22322;BMP180;11328;53.928;18.522;2023-09-30T06:53:39;100626.00;;;18.90
22322;BMP180;11328;53.928;18.522;2023-09-30T06:56:06;100626.00;;;19.20
22322;BMP180;11328;53.928;18.522;2023-09-30T06:58:34;100637.00;;;19.10
22322;BMP180;11328;53.928;18.522;2023-09-30T07:01:01;100631.00;;;18.70
22322;BMP180;11328;53.928;18.522;2023-09-30T07:03:29;100640.00;;;18.80
22322;BMP180;11328;53.928;18.522;2023-09-30T07:05:57;100642.00;;;18.70
22322;BMP180;11328;53.928;18.522;2023-09-30T07:08:30;100629.00;;;18.70
22322;BMP180;11328;53.928;18.522;2023-09-30T07:10:57;100639.00;;;18.80
22322;BMP180;11328;53.928;18.522;2023-09-30T07:13:24;100641.00;;;19.00
22322;BMP180;11328;53.928;18.522;2023-09-30T07:15:51;100657.00;;;19.10
22322;BMP180;11328;53.928;18.522;2023-09-30T07:18:18;100638.00;;;19.10
22322;BMP180;11328;53.928;18.522;2023-09-30T07:20:45;100641.00;;;19.10
22322;BMP180;11328;53.928;18.522;2023-09-30T07:23:12;100655.00;;;19.40
22322;BMP180;11328;53.928;18.522;2023-09-30T07:25:47;100648.00;;;19.60
22322;BMP180;11328;53.928;18.522;2023-09-30T07:28:14;100656.00;;;19.90
22322;BMP180;11328;53.928;18.522;2023-09-30T07:30:41;100654.00;;;20.00
22322;BMP180;11328;53.928;18.522;2023-09-30T07:33:08;100652.00;;;20.00
22322;BMP180;11328;53.928;18.522;2023-09-30T07:35:37;100657.00;;;20.10
22322;BMP180;11328;53.928;18.522;2023-09-30T07:38:06;100651.00;;;20.40
22322;BMP180;11328;53.928;18.522;2023-09-30T07:40:33;100655.00;;;20.50
22322;BMP180;11328;53.928;18.522;2023-09-30T07:43:00;100667.00;;;20.50
22322;BMP180;11328;53.928;18.522;2023-09-30T07:45:27;100659.00;;;20.40
22322;BMP180;11328;53.928;18.522;2023-09-30T07:47:55;100673.00;;;20.30
22322;BMP180;11328;53.928;18.522;2023-09-30T07:50:22;100683.00;;;20.40
22322;BMP180;11328;53.928;18.522;2023-09-30T07:52:49;100672.00;;;20.50
22322;BMP180;11328;53.928;18.522;2023-09-30T07:55:16;100671.00;;;20.30
22322;BMP180;11328;53.928;18.522;2023-09-30T07:57:43;100664.00;;;20.60
22322;BMP180;11328;53.928;18.522;2023-09-30T08:00:11;100681.00;;;20.80
22322;BMP180;11328;53.928;18.522;2023-09-30T08:02:43;100675.00;;;21.20
22322;BMP180;11328;53.928;18.522;2023-09-30T08:05:11;100690.00;;;21.40
22322;BMP180;11328;53.928;18.522;2023-09-30T08:07:38;100684.00;;;21.40
22322;BMP180;11328;53.928;18.522;2023-09-30T08:10:06;100690.00;;;21.10
22322;BMP180;11328;53.928;18.522;2023-09-30T08:12:40;100677.00;;;21.00
22322;BMP180;11328;53.928;18.522;2023-09-30T08:15:09;100689.00;;;21.20
22322;BMP180;11328;53.928;18.522;2023-09-30T08:17:39;100693.00;;;21.20
22322;BMP180;11328;53.928;18.522;2023-09-30T08:20:07;100689.00;;;21.40
22322;BMP180;11328;53.928;18.522;2023-09-30T08:22:38;100702.00;;;21.60
22322;BMP180;11328;53.928;18.522;2023-09-30T08:25:06;100690.00;;;21.60
22322;BMP180;11328;53.928;18.522;2023-09-30T08:27:33;100705.00;;;21.60
22322;BMP180;11328;53.928;18.522;2023-09-30T08:30:02;100712.00;;;21.10
22322;BMP180;11328;53.928;18.522;2023-09-30T08:32:35;100722.00;;;20.90
22322;BMP180;11328;53.928;18.522;2023-09-30T08:35:03;100718.00;;;20.80
22322;BMP180;11328;53.928;18.522;2023-09-30T08:37:30;100721.00;;;20.50
22322;BMP180;11328;53.928;18.522;2023-09-30T08:39:58;100722.00;;;20.20
22322;BMP180;11328;53.928;18.522;2023-09-30T08:42:27;100708.00;;;20.40
22322;BMP180;11328;53.928;18.522;2023-09-30T08:45:00;100711.00;;;20.50
22322;BMP180;11328;53.928;18.522;2023-09-30T08:47:28;100726.00;;;20.80
22322;BMP180;11328;53.928;18.522;2023-09-30T08:49:59;100740.00;;;21.00
22322;BMP180;11328;53.928;18.522;2023-09-30T08:52:33;100737.00;;;20.90
22322;BMP180;11328;53.928;18.522;2023-09-30T08:55:08;100744.00;;;20.80
22322;BMP180;11328;53.928;18.522;2023-09-30T08:57:45;100741.00;;;21.00
22322;BMP180;11328;53.928;18.522;2023-09-30T09:00:13;100738.00;;;21.00
22322;BMP180;11328;53.928;18.522;2023-09-30T09:02:42;100746.00;;;21.20
22322;BMP180;11328;53.928;18.522;2023-09-30T09:05:10;100758.00;;;21.10
22322;BMP180;11328;53.928;18.522;2023-09-30T09:07:39;100742.00;;;20.90
22322;BMP180;11328;53.928;18.522;2023-09-30T09:10:09;100746.00;;;21.10
22322;BMP180;11328;53.928;18.522;2023-09-30T09:12:38;100749.00;;;21.50
22322;BMP180;11328;53.928;18.522;2023-09-30T09:15:22;100752.00;;;21.50
22322;BMP180;11328;53.928;18.522;2023-09-30T09:17:50;100770.00;;;21.30
22322;BMP180;11328;53.928;18.522;2023-09-30T09:20:22;100760.00;;;21.20
22322;BMP180;11328;53.928;18.522;2023-09-30T09:22:52;100762.00;;;21.40
22322;BMP180;11328;53.928;18.522;2023-09-30T09:25:22;100751.00;;;21.60
22322;BMP180;11328;53.928;18.522;2023-09-30T09:27:53;100776.00;;;21.40
22322;BMP180;11328;53.928;18.522;2023-09-30T09:30:27;100767.00;;;21.30
22322;BMP180;11328;53.928;18.522;2023-09-30T09:32:59;100767.00;;;20.70
22322;BMP180;11328;53.928;18.522;2023-09-30T09:35:28;100762.00;;;21.00
22322;BMP180;11328;53.928;18.522;2023-09-30T09:38:03;100760.00;;;21.10
22322;BMP180;11328;53.928;18.522;2023-09-30T09:40:34;100766.00;;;21.20
22322;BMP180;11328;53.928;18.522;2023-09-30T09:43:02;100784.00;;;21.20
22322;BMP180;11328;53.928;18.522;2023-09-30T09:45:35;100791.00;;;20.80
22322;BMP180;11328;53.928;18.522;2023-09-30T09:48:04;100786.00;;;20.80
22322;BMP180;11328;53.928;18.522;2023-09-30T09:50:32;100790.00;;;20.60
22322;BMP180;11328;53.928;18.522;2023-09-30T09:53:00;100783.00;;;20.40
22322;BMP180;11328;53.928;18.522;2023-09-30T09:55:29;100773.00;;;20.20
22322;BMP180;11328;53.928;18.522;2023-09-30T09:57:58;100775.00;;;20.80
22322;BMP180;11328;53.928;18.522;2023-09-30T10:00:26;100779.00;;;21.60
22322;BMP180;11328;53.928;18.522;2023-09-30T10:02:54;100782.00;;;21.60
22322;BMP180;11328;53.928;18.522;2023-09-30T10:05:21;100778.00;;;21.60
22322;BMP180;11328;53.928;18.522;2023-09-30T10:10:27;100780.00;;;21.50
22322;BMP180;11328;53.928;18.522;2023-09-30T10:12:55;100785.00;;;21.80
22322;BMP180;11328;53.928;18.522;2023-09-30T10:18:07;100793.00;;;21.80
22322;BMP180;11328;53.928;18.522;2023-09-30T10:20:41;100795.00;;;21.20
22322;BMP180;11328;53.928;18.522;2023-09-30T10:23:27;100792.00;;;21.20
22322;BMP180;11328;53.928;18.522;2023-09-30T10:26:14;100797.00;;;21.30
22322;BMP180;11328;53.928;18.522;2023-09-30T10:28:45;100799.00;;;21.20
22322;BMP180;11328;53.928;18.522;2023-09-30T10:31:21;100802.00;;;21.50
22322;BMP180;11328;53.928;18.522;2023-09-30T10:36:41;100790.00;;;21.40
22322;BMP180;11328;53.928;18.522;2023-09-30T10:39:13;100788.00;;;21.40
22322;BMP180;11328;53.928;18.522;2023-09-30T10:46:54;100793.00;;;21.30
22322;BMP180;11328;53.928;18.522;2023-09-30T10:51:57;100790.00;;;21.50
22322;BMP180;11328;53.928;18.522;2023-09-30T10:54:29;100796.00;;;21.60
22322;BMP180;11328;53.928;18.522;2023-09-30T10:56:59;100798.00;;;21.50
22322;BMP180;11328;53.928;18.522;2023-09-30T10:59:29;100799.00;;;21.50
22322;BMP180;11328;53.928;18.522;2023-09-30T11:02:02;100800.00;;;21.40
22322;BMP180;11328;53.928;18.522;2023-09-30T11:04:30;100802.00;;;21.30
22322;BMP180;11328;53.928;18.522;2023-09-30T11:07:00;100800.00;;;21.40
22322;BMP180;11328;53.928;18.522;2023-09-30T11:09:29;100798.00;;;21.50
22322;BMP180;11328;53.928;18.522;2023-09-30T11:11:56;100804.00;;;21.60
22322;BMP180;11328;53.928;18.522;2023-09-30T11:14:31;100803.00;;;21.60
22322;BMP180;11328;53.928;18.522;2023-09-30T11:17:03;100807.00;;;21.50
22322;BMP180;11328;53.928;18.522;2023-09-30T11:19:47;100813.00;;;21.50
22322;BMP180;11328;53.928;18.522;2023-09-30T11:22:18;100802.00;;;21.60
22322;BMP180;11328;53.928;18.522;2023-09-30T11:24:45;100800.00;;;21.60
22322;BMP180;11328;53.928;18.522;2023-09-30T11:27:13;100805.00;;;21.70
22322;BMP180;11328;53.928;18.522;2023-09-30T11:29:49;100814.00;;;21.70
22322;BMP180;11328;53.928;18.522;2023-09-30T11:32:27;100812.00;;;21.60
22322;BMP180;11328;53.928;18.522;2023-09-30T11:34:56;100810.00;;;21.60
22322;BMP180;11328;53.928;18.522;2023-09-30T11:37:23;100813.00;;;21.50
22322;BMP180;11328;53.928;18.522;2023-09-30T11:39:50;100806.00;;;21.60
22322;BMP180;11328;53.928;18.522;2023-09-30T11:42:18;100806.00;;;21.40
22322;BMP180;11328;53.928;18.522;2023-09-30T11:44:47;100799.00;;;21.30
22322;BMP180;11328;53.928;18.522;2023-09-30T11:47:16;100798.00;;;21.20
22322;BMP180;11328;53.928;18.522;2023-09-30T11:49:43;100807.00;;;21.30
22322;BMP180;11328;53.928;18.522;2023-09-30T11:52:13;100804.00;;;21.40
22322;BMP180;11328;53.928;18.522;2023-09-30T11:54:43;100809.00;;;21.40
22322;BMP180;11328;53.928;18.522;2023-09-30T11:57:14;100813.00;;;21.30
22322;BMP180;11328;53.928;18.522;2023-09-30T11:59:46;100810.00;;;21.50
22322;BMP180;11328;53.928;18.522;2023-09-30T12:02:15;100803.00;;;21.50
22322;BMP180;11328;53.928;18.522;2023-09-30T12:04:46;100809.00;;;21.40
22322;BMP180;11328;53.928;18.522;2023-09-30T12:07:16;100808.00;;;21.30
22322;BMP180;11328;53.928;18.522;2023-09-30T12:09:43;100819.00;;;21.20
22322;BMP180;11328;53.928;18.522;2023-09-30T12:12:10;100819.00;;;21.00
22322;BMP180;11328;53.928;18.522;2023-09-30T12:14:39;100820.00;;;21.00
22322;BMP180;11328;53.928;18.522;2023-09-30T12:17:07;100832.00;;;20.90
22322;BMP180;11328;53.928;18.522;2023-09-30T12:19:39;100835.00;;;20.80
22322;BMP180;11328;53.928;18.522;2023-09-30T12:22:06;100844.00;;;20.60
22322;BMP180;11328;53.928;18.522;2023-09-30T12:24:33;100850.00;;;20.50
22322;BMP180;11328;53.928;18.522;2023-09-30T12:27:00;100848.00;;;20.30
22322;BMP180;11328;53.928;18.522;2023-09-30T12:29:28;100844.00;;;20.20
22322;BMP180;11328;53.928;18.522;2023-09-30T12:31:55;100844.00;;;20.20
22322;BMP180;11328;53.928;18.522;2023-09-30T12:34:23;100845.00;;;20.10
22322;BMP180;11328;53.928;18.522;2023-09-30T12:36:53;100844.00;;;20.20
22322;BMP180;11328;53.928;18.522;2023-09-30T12:39:21;100848.00;;;20.10
22322;BMP180;11328;53.928;18.522;2023-09-30T12:41:52;100837.00;;;20.30
22322;BMP180;11328;53.928;18.522;2023-09-30T12:44:19;100852.00;;;20.40
22322;BMP180;11328;53.928;18.522;2023-09-30T12:46:46;100849.00;;;20.40
22322;BMP180;11328;53.928;18.522;2023-09-30T12:49:13;100852.00;;;20.40
22322;BMP180;11328;53.928;18.522;2023-09-30T12:51:41;100825.00;;;20.50
22322;BMP180;11328;53.928;18.522;2023-09-30T12:54:08;100836.00;;;20.60
22322;BMP180;11328;53.928;18.522;2023-09-30T12:56:37;100850.00;;;20.60
22322;BMP180;11328;53.928;18.522;2023-09-30T12:59:04;100851.00;;;20.60
22322;BMP180;11328;53.928;18.522;2023-09-30T13:01:32;100849.00;;;20.60
22322;BMP180;11328;53.928;18.522;2023-09-30T13:04:02;100846.00;;;20.50
22322;BMP180;11328;53.928;18.522;2023-09-30T13:06:30;100833.00;;;20.60
22322;BMP180;11328;53.928;18.522;2023-09-30T13:08:59;100844.00;;;20.70
22322;BMP180;11328;53.928;18.522;2023-09-30T13:11:27;100832.00;;;20.70
22322;BMP180;11328;53.928;18.522;2023-09-30T13:13:54;100839.00;;;20.80
22322;BMP180;11328;53.928;18.522;2023-09-30T13:16:22;100832.00;;;20.70
22322;BMP180;11328;53.928;18.522;2023-09-30T13:18:49;100826.00;;;20.60
22322;BMP180;11328;53.928;18.522;2023-09-30T13:21:19;100832.00;;;20.60
22322;BMP180;11328;53.928;18.522;2023-09-30T13:23:47;100833.00;;;20.60
22322;BMP180;11328;53.928;18.522;2023-09-30T13:26:14;100834.00;;;20.70
22322;BMP180;11328;53.928;18.522;2023-09-30T13:28:41;100831.00;;;20.60
22322;BMP180;11328;53.928;18.522;2023-09-30T13:31:08;100832.00;;;20.70
22322;BMP180;11328;53.928;18.522;2023-09-30T13:33:35;100834.00;;;20.90
22322;BMP180;11328;53.928;18.522;2023-09-30T13:36:02;100832.00;;;20.90
22322;BMP180;11328;53.928;18.522;2023-09-30T13:38:29;100830.00;;;20.80
22322;BMP180;11328;53.928;18.522;2023-09-30T13:40:56;100829.00;;;20.70
22322;BMP180;11328;53.928;18.522;2023-09-30T13:43:23;100820.00;;;20.70
22322;BMP180;11328;53.928;18.522;2023-09-30T13:45:50;100827.00;;;20.70
22322;BMP180;11328;53.928;18.522;2023-09-30T13:48:18;100828.00;;;21.00
22322;BMP180;11328;53.928;18.522;2023-09-30T13:50:44;100835.00;;;21.00
22322;BMP180;11328;53.928;18.522;2023-09-30T13:53:12;100836.00;;;20.90
22322;BMP180;11328;53.928;18.522;2023-09-30T13:55:39;100830.00;;;20.70
22322;BMP180;11328;53.928;18.522;2023-09-30T13:58:06;100839.00;;;20.60
22322;BMP180;11328;53.928;18.522;2023-09-30T14:00:33;100839.00;;;20.60
22322;BMP180;11328;53.928;18.522;2023-09-30T14:03:00;100833.00;;;20.50
22322;BMP180;11328;53.928;18.522;2023-09-30T14:05:28;100838.00;;;20.60
22322;BMP180;11328;53.928;18.522;2023-09-30T14:07:55;100843.00;;;20.60
22322;BMP180;11328;53.928;18.522;2023-09-30T14:10:22;100838.00;;;20.60